Time;durP1;ratioP1;P1;durP2;ratioP2;P2;SDS_P1;SDS_P2;PMS_P1;PMS_P2;Temp;Humidity;BMP_temperature;BMP_pressure;BME280_temperature;BME280_humidity;BME280_pressure;Samples;Min_cycle;Max_cycle;Signal;HPM_P1;HPM_P2
2022/09/24 00:00:43;;;;;;;10.70;10.40;;;10.40;99.90;;;;;;6292273;22;20209;-83
2022/09/24 00:03:20;;;;;;;10.90;10.60;;;10.30;99.90;;;;;;6291067;22;20201;-83
2022/09/24 00:05:48;;;;;;;10.90;10.60;;;10.40;99.90;;;;;;6290894;22;20275;-84
2022/09/24 00:08:26;;;;;;;10.80;10.50;;;10.30;99.90;;;;;;6292029;22;20205;-83
2022/09/24 00:10:56;;;;;;;11.10;10.80;;;10.30;99.90;;;;;;6291867;22;20256;-83
2022/09/24 00:13:34;;;;;;;10.80;10.50;;;10.30;99.90;;;;;;6290812;22;20202;-83
2022/09/24 00:16:12;;;;;;;10.77;10.47;;;10.30;99.90;;;;;;6290575;22;20217;-82
2022/09/24 00:18:43;;;;;;;10.80;10.50;;;10.30;99.90;;;;;;6291172;22;20192;-83
2022/09/24 00:21:22;;;;;;;10.70;10.40;;;10.30;99.90;;;;;;6291167;22;20249;-82
2022/09/24 00:23:58;;;;;;;10.60;10.30;;;10.30;99.90;;;;;;6290719;22;20208;-83
2022/09/24 00:29:23;;;;;;;10.60;10.30;;;10.30;99.90;;;;;;6291179;22;20278;-83
2022/09/24 00:32:03;;;;;;;10.70;10.40;;;10.30;99.90;;;;;;6291147;22;20185;-82
2022/09/24 00:34:31;;;;;;;10.73;10.43;;;10.30;99.90;;;;;;6290404;22;20212;-83
2022/09/24 00:37:00;;;;;;;10.60;10.30;;;10.20;99.90;;;;;;6290650;22;20285;-83
2022/09/24 00:39:39;;;;;;;11.00;10.70;;;10.20;99.90;;;;;;6291828;22;20209;-83
2022/09/24 00:42:10;;;;;;;10.73;10.43;;;10.30;99.90;;;;;;6291201;22;20235;-82
2022/09/24 00:44:56;;;;;;;10.73;10.43;;;10.30;99.90;;;;;;6300600;22;20279;-82
2022/09/24 00:47:33;;;;;;;10.70;10.40;;;10.30;99.90;;;;;;6307238;22;20185;-83
2022/09/24 00:50:12;;;;;;;10.77;10.47;;;10.30;99.90;;;;;;6298603;22;20193;-83
2022/09/24 00:52:49;;;;;;;10.80;10.50;;;10.30;99.90;;;;;;6293648;22;20206;-83
2022/09/24 00:55:37;;;;;;;10.50;10.20;;;10.30;99.90;;;;;;6292105;22;20189;-83
2022/09/24 00:58:09;;;;;;;10.40;10.10;;;10.30;99.90;;;;;;6292450;22;20193;-83
2022/09/24 01:00:46;;;;;;;10.57;10.27;;;10.20;99.90;;;;;;6291909;22;20194;-83
2022/09/24 01:03:24;;;;;;;10.63;10.33;;;10.20;99.90;;;;;;6292638;22;20204;-84
2022/09/24 01:05:52;;;;;;;10.50;10.20;;;10.20;99.90;;;;;;6292417;22;20240;-83
2022/09/24 01:08:21;;;;;;;10.57;10.27;;;10.30;99.90;;;;;;6292500;22;20205;-83
2022/09/24 01:11:44;;;;;;;10.67;10.37;;;10.30;99.90;;;;;;6293178;22;20194;-83
2022/09/24 01:14:40;;;;;;;10.50;10.20;;;10.30;99.90;;;;;;6273089;22;20210;-83
2022/09/24 01:17:26;;;;;;;10.63;10.33;;;10.30;99.90;;;;;;6290758;22;20193;-83
2022/09/24 01:20:41;;;;;;;10.90;10.60;;;10.20;99.90;;;;;;6290732;22;20197;-82
2022/09/24 01:26:44;;;;;;;10.50;10.20;;;10.20;99.90;;;;;;6288326;22;20197;-82
2022/09/24 01:29:40;;;;;;;10.60;10.30;;;10.20;99.90;;;;;;6290232;22;20202;-83
2022/09/24 01:32:17;;;;;;;10.73;10.43;;;10.20;99.90;;;;;;6290977;22;20241;-83
2022/09/24 01:34:55;;;;;;;10.70;10.40;;;10.20;99.90;;;;;;6298449;22;20216;-82
2022/09/24 01:37:35;;;;;;;10.80;10.50;;;10.20;99.90;;;;;;6296979;22;20216;-82
2022/09/24 01:40:10;;;;;;;10.80;10.50;;;10.10;99.90;;;;;;6291421;22;20213;-82
2022/09/24 01:42:42;;;;;;;10.80;10.50;;;10.20;99.90;;;;;;6291744;22;20209;-85
2022/09/24 01:45:12;;;;;;;10.60;10.30;;;10.20;99.90;;;;;;6290405;22;20193;-83
2022/09/24 01:47:42;;;;;;;10.70;10.40;;;10.20;99.90;;;;;;6290995;22;20209;-83
2022/09/24 01:50:18;;;;;;;10.70;10.40;;;10.20;99.90;;;;;;6291033;22;20197;-83
2022/09/24 01:52:55;;;;;;;10.30;10.00;;;10.30;99.90;;;;;;6291426;22;20193;-83
2022/09/24 01:55:27;;;;;;;10.40;10.10;;;10.30;99.90;;;;;;6290367;22;20200;-83
2022/09/24 01:58:04;;;;;;;10.60;10.30;;;10.30;99.90;;;;;;6290891;22;20186;-82
2022/09/24 02:00:42;;;;;;;10.50;10.20;;;10.40;99.90;;;;;;6296249;22;20241;-83
2022/09/24 02:03:21;;;;;;;10.30;10.00;;;10.40;99.90;;;;;;6295932;22;20205;-83
2022/09/24 02:05:58;;;;;;;10.60;10.30;;;10.40;99.90;;;;;;6295714;22;20190;-83
2022/09/24 02:08:30;;;;;;;10.40;10.10;;;10.40;99.90;;;;;;6307622;22;20205;-82
2022/09/24 02:11:07;;;;;;;10.10;9.80;;;10.50;99.90;;;;;;6296760;22;20256;-82
2022/09/24 02:13:43;;;;;;;10.30;10.00;;;10.50;99.90;;;;;;6303890;22;20208;-82
2022/09/24 02:16:22;;;;;;;10.33;10.03;;;10.50;99.90;;;;;;6307397;22;20196;-83
2022/09/24 02:19:00;;;;;;;10.10;9.80;;;10.60;99.90;;;;;;6307717;22;20201;-82
2022/09/24 02:21:32;;;;;;;10.30;10.00;;;10.60;99.90;;;;;;6293589;22;20248;-83
2022/09/24 02:24:10;;;;;;;10.43;10.13;;;10.60;99.90;;;;;;6307696;22;20285;-82
2022/09/24 02:26:38;;;;;;;10.40;10.10;;;10.60;99.90;;;;;;6307258;22;20194;-83
2022/09/24 02:29:08;;;;;;;10.20;9.90;;;10.60;99.90;;;;;;6307982;22;20214;-82
2022/09/24 02:31:48;;;;;;;10.00;9.70;;;10.60;99.90;;;;;;6307505;22;20190;-82
2022/09/24 02:34:24;;;;;;;10.53;10.23;;;10.60;99.90;;;;;;6307524;22;20220;-82
2022/09/24 02:36:56;;;;;;;10.40;10.10;;;10.50;99.90;;;;;;6308007;22;20223;-82
2022/09/24 02:39:24;;;;;;;10.43;10.13;;;10.60;99.90;;;;;;6308191;22;20217;-82
2022/09/24 02:41:53;;;;;;;10.40;10.10;;;10.60;99.90;;;;;;6308090;22;20204;-82
2022/09/24 02:44:23;;;;;;;10.47;10.17;;;10.60;99.90;;;;;;6307696;22;20186;-81
2022/09/24 02:47:00;;;;;;;10.40;10.10;;;10.60;99.90;;;;;;6307960;22;20197;-82
2022/09/24 02:49:31;;;;;;;10.60;10.30;;;10.50;99.90;;;;;;6308614;22;20215;-82
2022/09/24 02:52:10;;;;;;;10.50;10.20;;;10.50;99.90;;;;;;6308394;22;20200;-82
2022/09/24 02:54:45;;;;;;;10.13;9.83;;;10.50;99.90;;;;;;6302801;22;20200;-82
2022/09/24 02:57:15;;;;;;;10.37;10.07;;;10.50;99.90;;;;;;6301844;22;20212;-81
2022/09/24 02:59:44;;;;;;;10.10;9.80;;;10.50;99.90;;;;;;6306962;22;20193;-81
2022/09/24 03:02:22;;;;;;;10.40;10.10;;;10.50;99.90;;;;;;6309766;22;20245;-81
2022/09/24 03:04:51;;;;;;;10.40;10.10;;;10.50;99.90;;;;;;6309241;22;20213;-82
2022/09/24 03:07:21;;;;;;;10.40;10.10;;;10.40;99.90;;;;;;6309614;22;20205;-82
2022/09/24 03:09:53;;;;;;;10.40;10.10;;;10.40;99.90;;;;;;6309333;22;20193;-82
2022/09/24 03:12:22;;;;;;;10.00;9.70;;;10.40;99.90;;;;;;6309506;22;20253;-84
2022/09/24 03:14:50;;;;;;;10.13;9.83;;;10.40;99.90;;;;;;6308583;22;20204;-82
2022/09/24 03:17:22;;;;;;;10.20;9.90;;;10.40;99.90;;;;;;6309791;22;20291;-82
2022/09/24 03:19:49;;;;;;;10.40;10.10;;;10.40;99.90;;;;;;6309342;22;20189;-82
2022/09/24 03:22:20;;;;;;;10.50;10.20;;;10.40;99.90;;;;;;6309223;22;20221;-82
2022/09/24 03:24:49;;;;;;;10.23;9.93;;;10.40;99.90;;;;;;6308850;22;20174;-82
2022/09/24 03:27:18;;;;;;;10.20;9.90;;;10.30;99.90;;;;;;6309357;22;20208;-82
2022/09/24 03:32:37;;;;;;;10.60;10.30;;;10.30;99.90;;;;;;6309681;22;20198;-84
2022/09/24 03:35:06;;;;;;;10.47;10.17;;;10.30;99.90;;;;;;6308671;22;20165;-81
2022/09/24 03:37:45;;;;;;;10.30;10.00;;;10.30;99.90;;;;;;6309890;22;20190;-82
2022/09/24 03:40:12;;;;;;;10.30;10.00;;;10.30;99.90;;;;;;6309221;22;20206;-82
2022/09/24 03:42:43;;;;;;;10.33;10.03;;;10.30;99.90;;;;;;6307856;22;20204;-84
2022/09/24 03:45:11;;;;;;;10.10;9.80;;;10.30;99.90;;;;;;6308463;22;20177;-82
2022/09/24 03:47:43;;;;;;;10.50;10.20;;;10.30;99.90;;;;;;6309554;22;20205;-82
2022/09/24 03:50:11;;;;;;;10.60;10.30;;;10.30;99.90;;;;;;6309493;22;20194;-85
2022/09/24 03:52:41;;;;;;;10.50;10.20;;;10.20;99.90;;;;;;6308762;22;20185;-81
2022/09/24 03:55:18;;;;;;;10.10;9.80;;;10.20;99.90;;;;;;6308967;22;20221;-82
2022/09/24 03:57:58;;;;;;;10.40;10.10;;;10.20;99.90;;;;;;6309416;22;20189;-82
2022/09/24 04:00:26;;;;;;;10.40;10.10;;;10.20;99.90;;;;;;6309393;22;20189;-82
2022/09/24 04:03:04;;;;;;;10.23;9.93;;;10.20;99.90;;;;;;6308589;22;20269;-82
2022/09/24 04:08:14;;;;;;;10.03;9.73;;;10.20;99.90;;;;;;6307886;22;20283;-83
2022/09/24 04:10:50;;;;;;;10.07;9.77;;;10.20;99.90;;;;;;6309389;22;20181;-82
2022/09/24 04:13:19;;;;;;;9.97;9.67;;;10.30;99.90;;;;;;6308493;22;20201;-82
2022/09/24 04:15:49;;;;;;;10.10;9.80;;;10.20;99.90;;;;;;6309092;22;20193;-82
2022/09/24 04:18:26;;;;;;;10.10;9.80;;;10.20;99.90;;;;;;6309382;22;20216;-82
2022/09/24 04:21:04;;;;;;;10.10;9.80;;;10.20;99.90;;;;;;6309556;22;20271;-82
2022/09/24 04:23:34;;;;;;;10.10;9.80;;;10.20;99.90;;;;;;6308843;22;20205;-82
2022/09/24 04:26:06;;;;;;;10.10;9.80;;;10.20;99.90;;;;;;6303911;22;20209;-82
2022/09/24 04:28:34;;;;;;;9.77;9.47;;;10.20;99.90;;;;;;6307946;22;20193;-82
2022/09/24 04:31:05;;;;;;;10.17;9.87;;;10.20;99.90;;;;;;6299030;22;20228;-83
2022/09/24 04:33:34;;;;;;;10.20;9.90;;;10.20;99.90;;;;;;6291507;22;20206;-83
2022/09/24 04:36:02;;;;;;;9.90;9.60;;;10.20;99.90;;;;;;6290566;22;20232;-83
2022/09/24 04:38:30;;;;;;;9.93;9.63;;;10.20;99.90;;;;;;6291480;22;20225;-84
2022/09/24 04:43:58;;;;;;;9.90;9.60;;;10.20;99.90;;;;;;6290316;22;20197;-83
2022/09/24 04:52:00;;;;;;;10.20;9.90;;;10.00;99.90;;;;;;6289075;22;20193;-83
2022/09/24 04:54:31;;;;;;;10.40;10.10;;;9.90;99.90;;;;;;6290020;22;20212;-83
2022/09/24 04:56:58;;;;;;;10.47;10.17;;;9.90;99.90;;;;;;6290900;22;20256;-82
2022/09/24 04:59:29;;;;;;;10.30;10.00;;;9.90;99.90;;;;;;6290292;22;20202;-85
2022/09/24 05:02:02;;;;;;;10.30;10.00;;;9.80;99.90;;;;;;6290231;22;20197;-83
2022/09/24 05:04:37;;;;;;;10.50;10.20;;;9.80;99.90;;;;;;6289612;22;20275;-83
2022/09/24 05:07:05;;;;;;;10.70;10.40;;;9.80;99.90;;;;;;6289810;22;20243;-83
2022/09/24 05:09:36;;;;;;;10.70;10.40;;;9.80;99.90;;;;;;6290411;22;20217;-83
2022/09/24 05:12:04;;;;;;;10.33;10.03;;;9.70;99.90;;;;;;6290833;22;20297;-82
2022/09/24 05:14:32;;;;;;;10.50;10.20;;;9.60;99.90;;;;;;6290418;22;20202;-81
2022/09/24 05:17:01;;;;;;;10.30;10.00;;;9.60;99.90;;;;;;6294719;22;21093;-82
2022/09/24 05:19:38;;;;;;;10.50;10.20;;;9.50;99.90;;;;;;6293593;22;20198;-82
2022/09/24 05:22:07;;;;;;;10.37;10.07;;;9.60;99.90;;;;;;6293206;22;20243;-82
2022/09/24 05:24:34;;;;;;;10.17;9.87;;;9.60;99.90;;;;;;6292310;22;20236;-82
2022/09/24 05:27:11;;;;;;;10.30;10.00;;;9.60;99.90;;;;;;6292903;22;20241;-82
2022/09/24 05:29:42;;;;;;;10.10;9.80;;;9.60;99.90;;;;;;6292875;22;20208;-82
2022/09/24 05:32:12;;;;;;;10.10;9.80;;;9.60;99.90;;;;;;6291763;22;20241;-82
2022/09/24 05:34:44;;;;;;;10.10;9.80;;;9.60;99.90;;;;;;6290418;22;20213;-82
2022/09/24 05:37:14;;;;;;;10.00;9.70;;;9.60;99.90;;;;;;6291150;22;20205;-82
2022/09/24 05:39:41;;;;;;;10.23;9.93;;;9.70;99.90;;;;;;6290775;22;20195;-82
2022/09/24 05:42:12;;;;;;;10.27;9.97;;;9.70;99.90;;;;;;6290089;22;20280;-82
2022/09/24 05:44:41;;;;;;;10.00;9.70;;;9.80;99.90;;;;;;6289179;22;20228;-81
2022/09/24 05:47:09;;;;;;;9.93;9.63;;;9.80;99.90;;;;;;6289920;22;20196;-82
2022/09/24 05:49:37;;;;;;;10.10;9.80;;;9.90;99.90;;;;;;6290164;22;20270;-81
2022/09/24 05:52:07;;;;;;;10.20;9.90;;;9.90;99.90;;;;;;6289818;22;20221;-82
2022/09/24 05:54:34;;;;;;;10.20;9.90;;;10.00;99.90;;;;;;6289968;22;20284;-82
2022/09/24 05:57:02;;;;;;;10.20;9.90;;;10.10;99.90;;;;;;6290705;22;20201;-82
2022/09/24 05:59:30;;;;;;;10.07;9.77;;;10.10;99.90;;;;;;6291226;22;20229;-82
2022/09/24 06:01:57;;;;;;;9.90;9.60;;;10.10;99.90;;;;;;6290437;22;20647;-82
2022/09/24 06:04:25;;;;;;;10.30;10.00;;;10.20;99.90;;;;;;6290707;22;20236;-82
2022/09/24 06:06:53;;;;;;;10.37;10.07;;;10.20;99.90;;;;;;6291757;22;20198;-82
2022/09/24 06:09:22;;;;;;;10.47;10.17;;;10.20;99.90;;;;;;6290801;22;20255;-82
2022/09/24 06:11:52;;;;;;;10.37;10.07;;;10.20;99.90;;;;;;6291158;22;20193;-82
2022/09/24 06:14:20;;;;;;;10.50;10.20;;;10.30;99.90;;;;;;6289875;22;20202;-81
2022/09/24 06:16:48;;;;;;;10.60;10.30;;;10.30;99.90;;;;;;6290156;22;20194;-81
2022/09/24 06:19:17;;;;;;;10.10;9.80;;;10.40;99.90;;;;;;6290352;22;20185;-83
2022/09/24 06:21:44;;;;;;;10.10;9.80;;;10.40;99.90;;;;;;6290040;22;20241;-80
2022/09/24 06:24:12;;;;;;;10.00;9.70;;;10.50;99.90;;;;;;6290910;22;20228;-80
2022/09/24 06:26:41;;;;;;;10.47;10.17;;;10.50;99.90;;;;;;6290301;22;20293;-80
2022/09/24 06:29:09;;;;;;;10.47;10.17;;;10.50;99.90;;;;;;6290021;22;20251;-81
2022/09/24 06:31:38;;;;;;;10.37;10.07;;;10.50;99.90;;;;;;6290335;22;20217;-81
2022/09/24 06:34:07;;;;;;;10.10;9.80;;;10.50;99.90;;;;;;6291421;22;20202;-81
2022/09/24 06:36:37;;;;;;;10.27;9.97;;;10.50;99.90;;;;;;6289541;22;20288;-81
2022/09/24 06:39:05;;;;;;;10.20;9.90;;;10.50;99.90;;;;;;6291112;22;20281;-81
2022/09/24 06:41:33;;;;;;;10.27;9.97;;;10.60;99.90;;;;;;6291404;22;20231;-81
2022/09/24 06:44:04;;;;;;;10.10;9.80;;;10.60;99.90;;;;;;6296366;22;20365;-79
2022/09/24 06:46:32;;;;;;;10.20;9.90;;;10.60;99.90;;;;;;6310562;22;20170;-81
2022/09/24 06:48:59;;;;;;;10.10;9.80;;;10.70;99.90;;;;;;6310922;22;20197;-80
2022/09/24 06:51:27;;;;;;;10.20;9.90;;;10.70;99.90;;;;;;6311409;22;20182;-81
2022/09/24 06:53:54;;;;;;;10.33;10.03;;;10.90;99.90;;;;;;6311127;22;20198;-81
2022/09/24 06:56:23;;;;;;;10.40;10.10;;;11.00;99.90;;;;;;6310413;22;20188;-80
2022/09/24 06:58:50;;;;;;;10.30;10.00;;;11.10;99.90;;;;;;6311262;22;20246;-80
2022/09/24 07:01:20;;;;;;;10.57;10.27;;;11.20;99.90;;;;;;6310205;22;20189;-80
2022/09/24 07:03:48;;;;;;;10.50;10.20;;;11.40;99.90;;;;;;6309083;22;20212;-80
2022/09/24 07:06:15;;;;;;;10.30;10.00;;;11.40;99.90;;;;;;6306550;22;20212;-80
2022/09/24 07:08:43;;;;;;;10.47;10.17;;;11.60;99.90;;;;;;6310215;22;20189;-80
2022/09/24 07:11:14;;;;;;;10.30;10.00;;;11.70;99.90;;;;;;6310494;22;20201;-82
2022/09/24 07:13:41;;;;;;;10.50;10.20;;;11.90;99.90;;;;;;6309969;22;20209;-81
2022/09/24 07:16:09;;;;;;;10.30;10.00;;;12.00;99.90;;;;;;6309513;22;20212;-81
2022/09/24 07:18:59;;;;;;;10.40;10.10;;;12.10;99.90;;;;;;6309236;22;20244;-82
2022/09/24 07:21:26;;;;;;;10.33;10.03;;;12.20;99.90;;;;;;6290453;22;20200;-82
2022/09/24 07:23:56;;;;;;;10.40;10.10;;;12.20;99.90;;;;;;6289775;22;20297;-82
2022/09/24 07:26:26;;;;;;;10.50;10.20;;;12.20;99.90;;;;;;6289564;22;20202;-82
2022/09/24 07:28:54;;;;;;;10.17;9.87;;;12.20;99.90;;;;;;6289589;22;20273;-82
2022/09/24 07:31:23;;;;;;;10.03;9.73;;;12.20;99.90;;;;;;6291984;22;20209;-82
2022/09/24 07:33:57;;;;;;;10.47;10.17;;;12.30;99.90;;;;;;6290798;22;20276;-82
2022/09/24 07:36:29;;;;;;;10.57;10.27;;;12.30;99.90;;;;;;6290126;22;20196;-83
2022/09/24 07:38:58;;;;;;;10.47;10.17;;;12.40;99.90;;;;;;6290942;22;20198;-83
2022/09/24 07:41:25;;;;;;;10.40;10.10;;;12.60;99.90;;;;;;6291856;22;20198;-82
2022/09/24 07:43:54;;;;;;;10.40;10.10;;;12.70;99.90;;;;;;6292195;22;20201;-82
2022/09/24 07:46:23;;;;;;;10.17;9.87;;;12.80;99.90;;;;;;6289481;22;20214;-84
2022/09/24 07:48:55;;;;;;;10.20;9.90;;;12.90;99.90;;;;;;6293390;22;20216;-83
2022/09/24 07:51:24;;;;;;;10.43;10.13;;;13.10;99.90;;;;;;6292669;22;20190;-83
2022/09/24 07:53:53;;;;;;;10.47;10.17;;;13.10;99.90;;;;;;6293248;22;20198;-84
2022/09/24 07:56:21;;;;;;;10.20;9.90;;;13.30;99.90;;;;;;6291919;22;20193;-82
2022/09/24 07:58:51;;;;;;;10.20;9.90;;;13.30;99.90;;;;;;6293042;22;20202;-82
2022/09/24 08:01:20;;;;;;;10.00;9.70;;;13.40;99.90;;;;;;6293301;22;20257;-82
2022/09/24 08:03:49;;;;;;;10.00;9.70;;;13.60;99.90;;;;;;6292733;22;20209;-82
2022/09/24 08:06:21;;;;;;;10.20;9.90;;;13.70;99.90;;;;;;6292891;22;20233;-83
2022/09/24 08:08:51;;;;;;;10.40;10.10;;;13.70;99.90;;;;;;6296011;22;20193;-82
2022/09/24 08:11:20;;;;;;;10.27;9.97;;;13.80;99.90;;;;;;6311960;22;20238;-81
2022/09/24 08:13:48;;;;;;;10.40;10.10;;;13.90;99.90;;;;;;6312000;22;20212;-81
2022/09/24 08:16:16;;;;;;;10.30;10.00;;;14.00;99.90;;;;;;6311694;22;20189;-80
2022/09/24 08:18:46;;;;;;;10.40;10.10;;;14.20;99.90;;;;;;6311784;22;20183;-82
2022/09/24 08:21:14;;;;;;;10.67;10.37;;;14.30;99.90;;;;;;6303235;22;20265;-82
2022/09/24 08:23:51;;;;;;;10.70;10.40;;;14.40;99.90;;;;;;6294391;22;20320;-83
2022/09/24 08:26:19;;;;;;;10.43;10.13;;;14.50;99.90;;;;;;6291825;22;20276;-82
2022/09/24 08:28:50;;;;;;;10.50;10.20;;;14.70;99.90;;;;;;6293112;22;20200;-82
2022/09/24 08:31:20;;;;;;;10.25;9.95;;;14.80;99.90;;;;;;6292473;22;20198;-81
2022/09/24 08:33:51;;;;;;;10.60;10.30;;;15.00;99.90;;;;;;6286406;22;20206;-82
2022/09/24 08:36:19;;;;;;;10.57;10.27;;;15.30;99.90;;;;;;6292831;22;20859;-82
2022/09/24 08:38:50;;;;;;;10.70;10.40;;;15.50;99.90;;;;;;6298440;22;20209;-81
2022/09/24 08:41:38;;;;;;;10.70;10.40;;;15.60;99.90;;;;;;6300936;22;20220;-82
2022/09/24 08:47:21;;;;;;;10.70;10.40;;;15.60;99.90;;;;;;6306751;22;20181;-83
2022/09/24 08:47:24;;;;;;;10.30;10.00;;;15.80;99.90;;;;;;6311035;22;20201;-82
2022/09/24 08:50:02;;;;;;;10.13;9.82;;;16.20;99.90;;;;;;6296855;22;20206;-84
2022/09/24 08:52:53;;;;;;;10.30;10.00;;;16.40;99.90;;;;;;6292470;22;20201;-83
2022/09/24 08:55:33;;;;;;;10.30;10.00;;;16.40;99.90;;;;;;6292418;22;20682;-82
2022/09/24 08:58:30;;;;;;;10.60;10.30;;;16.60;99.90;;;;;;6292733;22;20228;-81
2022/09/24 09:01:06;;;;;;;10.27;9.98;;;16.70;99.90;;;;;;6297620;22;20196;-81
2022/09/24 09:03:43;;;;;;;10.05;9.75;;;16.90;99.90;;;;;;6299076;22;20201;-83
2022/09/24 09:06:49;;;;;;;10.52;10.23;;;17.10;99.90;;;;;;6293367;22;20198;-83
2022/09/24 09:09:19;;;;;;;10.60;10.30;;;17.10;99.90;;;;;;6261702;22;20212;-84
2022/09/24 09:12:00;;;;;;;10.23;9.93;;;17.10;99.90;;;;;;6292356;22;20193;-88
2022/09/24 09:14:41;;;;;;;10.45;10.15;;;17.10;99.90;;;;;;6294335;22;20202;-83
2022/09/24 09:17:24;;;;;;;10.40;10.10;;;17.20;99.90;;;;;;6294941;22;20656;-82
2022/09/24 09:19:57;;;;;;;10.23;9.93;;;17.20;99.90;;;;;;6294349;22;20203;-81
2022/09/24 09:22:32;;;;;;;10.20;9.90;;;17.30;99.90;;;;;;6293871;22;20246;-82
2022/09/24 09:25:15;;;;;;;10.30;10.00;;;17.40;99.90;;;;;;6294730;22;20193;-82
2022/09/24 09:27:45;;;;;;;10.38;10.07;;;17.60;99.90;;;;;;6293607;22;20220;-82
2022/09/24 09:30:18;;;;;;;10.52;10.23;;;17.70;99.90;;;;;;6292524;22;20228;-82
2022/09/24 09:33:05;;;;;;;10.35;10.05;;;17.70;99.90;;;;;;6295439;22;20209;-82
2022/09/24 09:35:43;;;;;;;10.57;10.27;;;17.70;99.90;;;;;;6293813;22;20193;-80
2022/09/24 09:38:22;;;;;;;10.60;10.30;;;18.00;99.90;;;;;;6293664;22;20237;-80
2022/09/24 09:41:00;;;;;;;10.27;9.98;;;18.20;99.90;;;;;;6297056;22;20208;-82
2022/09/24 09:43:30;;;;;;;10.68;10.38;;;18.40;99.90;;;;;;6294446;22;20209;-80
2022/09/24 09:46:11;;;;;;;10.30;10.00;;;18.40;99.90;;;;;;6291589;22;20209;-78
2022/09/24 09:48:46;;;;;;;10.60;10.30;;;18.50;99.90;;;;;;6291998;22;20197;-79
2022/09/24 09:51:21;;;;;;;10.35;10.05;;;18.40;99.90;;;;;;6293122;22;20224;-79
2022/09/24 09:53:56;;;;;;;10.35;10.05;;;18.70;99.90;;;;;;6293254;22;20236;-80
2022/09/24 09:56:27;;;;;;;10.60;10.30;;;18.70;99.90;;;;;;6292520;22;20221;-81
2022/09/24 09:59:07;;;;;;;10.50;10.20;;;18.60;99.90;;;;;;6294913;22;20281;-79
2022/09/24 10:01:39;;;;;;;10.35;10.05;;;18.70;99.90;;;;;;6293330;22;20232;-81
2022/09/24 10:04:08;;;;;;;10.35;10.05;;;18.70;99.90;;;;;;6292964;22;20198;-84
2022/09/24 10:06:38;;;;;;;10.50;10.20;;;18.80;99.90;;;;;;6294885;22;20201;-87
2022/09/24 10:09:16;;;;;;;10.45;10.15;;;18.80;99.90;;;;;;6294368;22;20213;-84
2022/09/24 10:11:49;;;;;;;10.30;10.00;;;18.80;99.90;;;;;;6290238;22;20205;-85
2022/09/24 10:14:25;;;;;;;10.43;10.13;;;18.80;99.90;;;;;;6290684;22;20288;-93
2022/09/24 10:16:55;;;;;;;10.40;10.10;;;18.80;99.90;;;;;;6292066;22;20193;-89
2022/09/24 10:19:32;;;;;;;10.63;10.32;;;18.70;99.90;;;;;;6292442;22;20220;-90
2022/09/24 10:22:11;;;;;;;10.30;10.00;;;18.80;99.90;;;;;;6292628;22;20194;-90
2022/09/24 10:24:49;;;;;;;10.30;10.00;;;18.80;99.90;;;;;;6291599;22;20231;-86
2022/09/24 10:30:41;;;;;;;10.60;10.30;;;18.80;99.90;;;;;;6289683;22;20205;-87
2022/09/24 10:33:09;;;;;;;10.27;9.98;;;18.60;99.90;;;;;;6290999;22;20201;-88
2022/09/24 10:35:38;;;;;;;10.00;9.70;;;18.50;99.90;;;;;;6290950;22;20252;-87
2022/09/24 10:38:36;;;;;;;10.25;9.95;;;18.50;99.90;;;;;;6290097;22;20197;-87
2022/09/24 10:41:31;;;;;;;10.23;9.93;;;18.40;99.90;;;;;;6290617;22;20218;-85
2022/09/24 10:44:10;;;;;;;10.20;9.90;;;18.50;99.90;;;;;;6291069;22;20267;-90
2022/09/24 10:47:13;;;;;;;10.05;9.75;;;18.50;99.90;;;;;;6291177;22;20193;-84
2022/09/24 10:50:18;;;;;;;9.90;9.60;;;18.60;99.90;;;;;;6291398;22;20196;-84
2022/09/24 10:52:55;;;;;;;10.10;9.80;;;18.50;99.90;;;;;;6287818;22;20236;-85
2022/09/24 10:55:46;;;;;;;10.20;9.90;;;18.50;99.90;;;;;;6293472;22;20189;-85
2022/09/24 10:58:39;;;;;;;10.00;9.70;;;18.40;99.90;;;;;;6312440;22;20216;-85
2022/09/24 11:01:17;;;;;;;10.00;9.70;;;18.30;99.90;;;;;;6312455;22;20176;-84
2022/09/24 11:04:06;;;;;;;10.00;9.70;;;18.30;99.90;;;;;;6307662;22;20216;-82
2022/09/24 11:09:46;;;;;;;9.98;9.68;;;18.40;99.90;;;;;;6289261;22;20193;-83
2022/09/24 11:12:26;;;;;;;10.25;9.95;;;18.50;99.90;;;;;;6289586;22;20197;-83
2022/09/24 11:15:16;;;;;;;10.18;9.88;;;18.50;99.90;;;;;;6290473;22;20296;-81
2022/09/24 11:18:08;;;;;;;10.20;9.90;;;18.60;99.90;;;;;;6293246;22;20190;-82
2022/09/24 11:20:48;;;;;;;10.15;9.85;;;18.60;99.90;;;;;;6305768;22;20206;-82
2022/09/24 11:23:41;;;;;;;10.10;9.80;;;18.70;99.90;;;;;;6293057;22;20248;-82
2022/09/24 11:26:24;;;;;;;10.20;9.90;;;18.90;99.90;;;;;;6291432;22;20193;-82
2022/09/24 11:29:27;;;;;;;10.27;9.98;;;19.10;99.90;;;;;;6291202;22;20197;-82
2022/09/24 11:32:13;;;;;;;10.50;10.20;;;19.20;99.90;;;;;;6290812;22;20243;-85
2022/09/24 11:35:02;;;;;;;10.30;10.00;;;19.40;99.90;;;;;;6290325;22;20240;-82
2022/09/24 11:37:48;;;;;;;9.80;9.50;;;19.50;99.90;;;;;;6290614;22;20221;-83
2022/09/24 11:40:54;;;;;;;9.77;9.48;;;19.50;99.90;;;;;;6291045;22;20193;-82
2022/09/24 11:43:59;;;;;;;9.52;9.23;;;19.50;99.90;;;;;;6277364;22;20228;-81
2022/09/24 11:46:51;;;;;;;9.90;9.60;;;19.40;99.90;;;;;;6291404;22;20193;-87
2022/09/24 11:49:51;;;;;;;9.93;9.63;;;19.40;99.90;;;;;;6291043;22;20201;-81
2022/09/24 11:52:29;;;;;;;10.00;9.70;;;19.30;99.90;;;;;;6292510;22;20201;-81
2022/09/24 11:55:05;;;;;;;10.15;9.85;;;19.40;99.90;;;;;;6291498;22;20257;-82
2022/09/24 11:57:44;;;;;;;10.10;9.80;;;19.40;99.90;;;;;;6292369;22;20193;-81
2022/09/24 12:00:17;;;;;;;9.82;9.52;;;19.40;99.90;;;;;;6291702;22;20193;-81
2022/09/24 12:02:50;;;;;;;9.88;9.57;;;19.30;99.90;;;;;;6292788;22;20189;-82
2022/09/24 12:05:29;;;;;;;9.70;9.40;;;19.40;99.90;;;;;;6291850;22;20213;-81
2022/09/24 12:08:04;;;;;;;9.88;9.57;;;19.30;99.90;;;;;;6293873;22;20200;-82
2022/09/24 12:10:39;;;;;;;10.00;9.70;;;19.30;99.90;;;;;;6293920;22;20221;-82
2022/09/24 12:13:18;;;;;;;9.60;9.30;;;19.10;99.90;;;;;;6294941;22;20269;-82
2022/09/24 12:15:52;;;;;;;9.98;9.68;;;19.00;99.90;;;;;;6308281;22;20189;-82
2022/09/24 12:18:27;;;;;;;9.98;9.68;;;18.90;99.90;;;;;;6304861;22;20193;-82
2022/09/24 12:21:01;;;;;;;10.20;9.90;;;19.10;99.90;;;;;;6296394;22;20189;-83
2022/09/24 12:23:33;;;;;;;10.00;9.70;;;19.20;99.90;;;;;;6297819;22;20236;-81
2022/09/24 12:26:08;;;;;;;10.02;9.73;;;19.30;99.90;;;;;;6294196;22;20205;-81
2022/09/24 12:34:47;;;;;;;10.30;10.00;;;19.80;99.90;;;;;;6303932;22;20222;-80
2022/09/24 12:37:19;;;;;;;10.30;10.00;;;19.70;99.90;;;;;;6304686;22;20272;-81
2022/09/24 12:39:54;;;;;;;10.40;10.10;;;19.70;99.90;;;;;;6304040;22;20221;-83
2022/09/24 12:42:27;;;;;;;10.27;9.98;;;19.80;99.90;;;;;;6300556;22;20639;-80
2022/09/24 12:44:59;;;;;;;10.32;10.02;;;20.00;99.90;;;;;;6293691;22;20186;-79
2022/09/24 12:47:32;;;;;;;10.10;9.80;;;20.10;99.90;;;;;;6305767;22;20186;-79
2022/09/24 12:50:02;;;;;;;10.07;9.77;;;20.00;99.90;;;;;;6307052;22;20198;-79
2022/09/24 12:52:37;;;;;;;10.32;10.02;;;20.00;99.90;;;;;;6306780;22;20200;-79
2022/09/24 12:55:06;;;;;;;10.27;9.98;;;20.00;99.90;;;;;;6304360;22;20193;-80
2022/09/24 12:57:41;;;;;;;10.40;10.10;;;20.10;99.90;;;;;;6299091;22;20205;-80
2022/09/24 13:00:40;;;;;;;10.32;10.02;;;20.20;99.90;;;;;;6302397;22;20212;-80
2022/09/24 13:03:32;;;;;;;11.00;10.70;;;20.20;99.90;;;;;;6300009;22;20213;-80
2022/09/24 13:06:00;;;;;;;10.82;10.52;;;20.20;99.90;;;;;;6305071;22;20196;-80
2022/09/24 13:08:36;;;;;;;11.10;10.80;;;20.40;99.90;;;;;;6304574;22;20194;-80
2022/09/24 13:11:28;;;;;;;10.98;10.68;;;20.40;99.90;;;;;;6303381;22;20321;-79
2022/09/24 13:14:08;;;;;;;10.85;10.55;;;20.40;99.90;;;;;;6305038;22;20194;-79
2022/09/24 13:16:43;;;;;;;10.55;10.25;;;20.40;99.90;;;;;;6302021;22;20193;-80
2022/09/24 13:19:28;;;;;;;10.77;10.48;;;20.30;99.90;;;;;;6294123;22;20217;-79
2022/09/24 13:21:59;;;;;;;10.57;10.27;;;20.30;99.90;;;;;;6297658;22;20269;-78
2022/09/24 13:24:29;;;;;;;10.68;10.38;;;20.30;99.90;;;;;;6295676;22;20264;-77
2022/09/24 13:27:20;;;;;;;10.60;10.30;;;20.30;99.90;;;;;;6294104;22;20225;-79
2022/09/24 13:30:04;;;;;;;10.60;10.30;;;20.20;99.90;;;;;;6290680;22;20216;-79
2022/09/24 13:32:37;;;;;;;10.52;10.23;;;20.10;99.90;;;;;;6290268;22;20285;-79
2022/09/24 13:35:14;;;;;;;10.45;10.15;;;20.10;99.90;;;;;;6290532;22;20189;-79
2022/09/24 13:37:51;;;;;;;10.30;10.00;;;20.30;99.90;;;;;;6293265;22;20280;-79
2022/09/24 13:40:24;;;;;;;10.60;10.30;;;20.30;99.90;;;;;;6292199;22;20268;-79
2022/09/24 13:43:00;;;;;;;10.48;10.18;;;20.30;99.90;;;;;;6290326;22;20201;-79
2022/09/24 13:45:29;;;;;;;10.90;10.60;;;20.30;99.90;;;;;;6287395;22;20284;-78